createdAt,value
2023-05-05T00:00:27.688Z,98542.47
2023-05-05T00:01:31.094Z,98537.25
2023-05-05T00:02:34.397Z,98537.37
2023-05-05T00:03:37.836Z,98543.78
2023-05-05T00:04:41.039Z,98544.03
2023-05-05T00:05:43.978Z,98535.91
2023-05-05T00:06:47.470Z,98540.88
2023-05-05T00:07:50.570Z,98535.66
2023-05-05T00:08:53.535Z,98539.13
2023-05-05T00:09:56.880Z,98547.09
2023-05-05T00:11:00.253Z,98543.50
2023-05-05T00:12:03.274Z,98537.87
2023-05-05T00:13:06.796Z,98546.69
2023-05-05T00:14:09.897Z,98540.94
2023-05-05T00:15:12.899Z,98545.41
2023-05-05T00:16:16.527Z,98547.16
2023-05-05T00:17:19.648Z,98541.94
2023-05-05T00:18:22.945Z,98541.66
2023-05-05T00:19:25.852Z,98541.25
2023-05-05T00:20:28.842Z,98544.28
2023-05-05T00:21:32.109Z,98536.31
2023-05-05T00:22:35.001Z,98536.75
2023-05-05T00:23:37.883Z,98539.81
2023-05-05T00:24:41.130Z,98543.56
2023-05-05T00:25:44.494Z,98549.38
2023-05-05T00:26:47.403Z,98541.25
2023-05-05T00:27:50.803Z,98542.25
2023-05-05T00:28:53.845Z,98539.94
2023-05-05T00:29:57.137Z,98538.94
2023-05-05T00:31:00.189Z,98539.38
2023-05-05T00:32:03.203Z,98531.41
2023-05-05T00:33:06.298Z,98538.66
2023-05-05T00:34:09.173Z,98534.88
2023-05-05T00:35:12.232Z,98536.03
2023-05-05T00:36:15.224Z,98529.50
2023-05-05T00:37:18.147Z,98529.66
2023-05-05T00:38:21.076Z,98529.78
2023-05-05T00:39:24.565Z,98535.44
2023-05-05T00:40:27.989Z,98533.84
2023-05-05T00:41:30.977Z,98532.53
2023-05-05T00:42:48.567Z,98527.47
2023-05-05T00:43:51.370Z,98531.09
2023-05-05T00:44:54.240Z,98525.59
2023-05-05T00:46:02.509Z,98525.28
2023-05-05T00:47:06.205Z,98527.78
2023-05-05T00:48:09.667Z,98534.44
2023-05-05T00:49:12.637Z,98533.12
2023-05-05T00:50:25.484Z,98528.91
2023-05-05T00:51:29.056Z,98523.28
2023-05-05T00:52:32.235Z,98531.38
2023-05-05T00:53:36.100Z,98526.47
2023-05-05T00:54:39.508Z,98522.72
2023-05-05T00:55:42.723Z,98522.81
2023-05-05T00:56:46.153Z,98517.31
2023-05-05T00:57:49.869Z,98518.50
2023-05-05T00:58:53.035Z,98523.56
2023-05-05T00:59:56.612Z,98515.75
2023-05-05T01:00:59.541Z,98513.97
2023-05-05T01:02:02.722Z,98519.06
2023-05-05T01:03:06.372Z,98517.91
2023-05-05T01:04:09.512Z,98523.56
2023-05-05T01:05:14.701Z,98511.81
2023-05-05T01:06:23.585Z,98508.06
2023-05-05T01:08:06.501Z,98518.06
2023-05-05T01:09:37.601Z,98520.97
2023-05-05T01:10:53.256Z,98510.81
2023-05-05T01:12:18.201Z,98510.50
2023-05-05T01:13:39.777Z,98508.06
2023-05-05T01:14:50.603Z,98517.22
2023-05-05T01:16:07.568Z,98508.38
2023-05-05T01:17:23.367Z,98508.50
2023-05-05T01:18:50.649Z,98514.47
2023-05-05T01:20:25.119Z,98510.09
2023-05-05T01:21:38.874Z,98512.69
2023-05-05T01:22:53.607Z,98507.63
2023-05-05T01:24:34.611Z,98513.44
2023-05-05T01:25:49.370Z,98511.38
2023-05-05T01:27:11.331Z,98511.22
2023-05-05T01:28:14.165Z,98508.22
2023-05-05T01:29:28.108Z,98513.72
2023-05-05T01:30:34.058Z,98512.41
2023-05-05T01:31:52.295Z,98511.09
2023-05-05T01:33:01.149Z,98515.44
2023-05-05T01:34:10.452Z,98515.59
2023-05-05T01:35:21.689Z,98519.38
2023-05-05T01:36:28.958Z,98515.91
2023-05-05T01:37:51.206Z,98513.16
2023-05-05T01:39:01.672Z,98521.22
2023-05-05T01:40:08.572Z,98512.41
2023-05-05T01:41:17.728Z,98507.78
2023-05-05T01:42:22.655Z,98512.09
2023-05-05T01:43:29.879Z,98515.13
2023-05-05T01:44:36.866Z,98513.13
2023-05-05T01:45:43.887Z,98520.34
2023-05-05T01:46:49.325Z,98511.66
2023-05-05T01:47:54.917Z,98504.56
2023-05-05T01:48:59.556Z,98510.75
2023-05-05T01:50:04.642Z,98515.66
2023-05-05T01:51:09.297Z,98514.03
2023-05-05T01:52:13.765Z,98506.50
2023-05-05T01:53:19.303Z,98513.59
2023-05-05T01:54:24.962Z,98517.16
2023-05-05T01:55:29.785Z,98511.38
2023-05-05T01:56:33.644Z,98515.25
2023-05-05T01:57:43.896Z,98507.28
2023-05-05T01:58:47.923Z,98516.66
2023-05-05T01:59:53.062Z,98510.56
2023-05-05T02:00:57.912Z,98514.87
2023-05-05T02:02:03.745Z,98512.13
2023-05-05T02:03:08.822Z,98517.66
2023-05-05T02:04:14.647Z,98507.84
2023-05-05T02:05:19.851Z,98514.47
2023-05-05T02:06:24.298Z,98505.75
2023-05-05T02:07:28.459Z,98516.41
2023-05-05T02:08:32.950Z,98512.66
2023-05-05T02:09:37.845Z,98510.31
2023-05-05T02:10:41.364Z,98508.56
2023-05-05T02:11:44.463Z,98509.13
2023-05-05T02:12:48.078Z,98508.22
2023-05-05T02:13:52.277Z,98501.16
2023-05-05T02:14:57.968Z,98509.44
2023-05-05T02:16:01.997Z,98506.31
2023-05-05T02:17:05.399Z,98508.97
2023-05-05T02:18:09.900Z,98501.72
2023-05-05T02:19:14.780Z,98507.78
2023-05-05T02:20:20.091Z,98508.09
2023-05-05T02:21:23.445Z,98503.12
2023-05-05T02:22:26.493Z,98516.84
2023-05-05T02:23:30.369Z,98503.03
2023-05-05T02:24:33.789Z,98510.06
2023-05-05T02:25:46.132Z,98514.34
2023-05-05T02:26:52.308Z,98503.91
2023-05-05T02:27:58.145Z,98510.34
2023-05-05T02:29:08.214Z,98505.88
2023-05-05T02:30:14.630Z,98509.34
2023-05-05T02:31:21.012Z,98508.84
2023-05-05T02:32:39.756Z,98508.44
2023-05-05T02:33:44.715Z,98507.06
2023-05-05T02:34:50.218Z,98508.50
2023-05-05T02:35:55.785Z,98502.69
2023-05-05T02:37:03.081Z,98506.87
2023-05-05T02:38:08.414Z,98498.34
2023-05-05T02:39:15.469Z,98508.78
2023-05-05T02:40:24.931Z,98504.44
2023-05-05T02:41:29.946Z,98507.91
2023-05-05T02:42:37.141Z,98504.69
2023-05-05T02:43:42.806Z,98504.72
2023-05-05T02:44:46.683Z,98502.19
2023-05-05T02:45:49.963Z,98501.78
2023-05-05T02:46:54.562Z,98500.16
2023-05-05T02:47:57.843Z,98503.62
2023-05-05T02:49:00.989Z,98500.81
2023-05-05T02:50:07.577Z,98502.44
2023-05-05T02:51:10.756Z,98500.56
2023-05-05T02:52:14.767Z,98502.78
2023-05-05T02:53:19.670Z,98494.88
2023-05-05T02:54:22.799Z,98496.50
2023-05-05T02:55:38.417Z,98496.09
2023-05-05T02:56:47.376Z,98494.97
2023-05-05T02:58:01.140Z,98500.78
2023-05-05T02:59:18.160Z,98504.97
2023-05-05T03:00:30.335Z,98498.91
2023-05-05T03:02:00.912Z,98502.47
2023-05-05T03:03:07.531Z,98503.84
2023-05-05T03:04:21.898Z,98501.09
2023-05-05T03:05:31.295Z,98500.37
2023-05-05T03:06:43.056Z,98500.53
2023-05-05T03:08:11.361Z,98496.34
2023-05-05T03:09:32.633Z,98495.06
2023-05-05T03:10:44.476Z,98492.63
2023-05-05T03:11:53.624Z,98500.28
2023-05-05T03:13:00.334Z,98499.97
2023-05-05T03:14:10.486Z,98496.34
2023-05-05T03:15:14.570Z,98497.41
2023-05-05T03:16:19.023Z,98509.00
2023-05-05T03:17:24.198Z,98501.03
2023-05-05T03:18:29.846Z,98493.19
2023-05-05T03:19:36.573Z,98493.03
2023-05-05T03:20:40.998Z,98489.09
2023-05-05T03:21:44.373Z,98499.00
2023-05-05T03:22:48.241Z,98497.41
2023-05-05T03:23:51.234Z,98493.75
2023-05-05T03:24:54.207Z,98494.25
2023-05-05T03:25:57.213Z,98495.12
2023-05-05T03:27:00.487Z,98496.81
2023-05-05T03:28:03.433Z,98497.88
2023-05-05T03:29:07.147Z,98491.09
2023-05-05T03:30:10.842Z,98491.91
2023-05-05T03:31:14.164Z,98495.78
2023-05-05T03:32:17.175Z,98497.88
2023-05-05T03:33:20.885Z,98491.25
2023-05-05T03:34:23.656Z,98499.91
2023-05-05T03:35:26.598Z,98501.50
2023-05-05T03:36:30.103Z,98501.81
2023-05-05T03:37:33.101Z,98502.78
2023-05-05T03:38:35.942Z,98503.38
2023-05-05T03:39:39.054Z,98503.19
2023-05-05T03:40:44.568Z,98496.66
2023-05-05T03:41:47.740Z,98498.03
2023-05-05T03:42:51.001Z,98505.22
2023-05-05T03:43:54.334Z,98491.91
2023-05-05T03:44:57.438Z,98493.38
2023-05-05T03:46:00.474Z,98503.91
2023-05-05T03:47:03.635Z,98498.13
2023-05-05T03:48:07.176Z,98497.16
2023-05-05T03:49:10.182Z,98502.69
2023-05-05T03:50:13.230Z,98495.28
2023-05-05T03:51:24.827Z,98505.53
2023-05-05T03:52:27.862Z,98506.66
2023-05-05T03:53:30.934Z,98504.63
2023-05-05T03:54:33.921Z,98509.22
2023-05-05T03:55:37.231Z,98508.31
2023-05-05T03:56:40.293Z,98515.09
2023-05-05T03:57:43.214Z,98514.37
2023-05-05T03:58:46.423Z,98517.84
2023-05-05T03:59:49.231Z,98524.31
2023-05-05T04:00:52.519Z,98515.59
2023-05-05T04:01:55.476Z,98519.88
2023-05-05T04:02:58.593Z,98520.53
2023-05-05T04:04:02.028Z,98519.25
2023-05-05T04:05:05.390Z,98518.03
2023-05-05T04:06:08.251Z,98520.91
2023-05-05T04:07:11.524Z,98518.03
2023-05-05T04:08:14.519Z,98504.56
2023-05-05T04:09:17.507Z,98515.81
2023-05-05T04:10:20.417Z,98513.31
2023-05-05T04:11:23.513Z,98516.25
2023-05-05T04:12:26.519Z,98514.37
2023-05-05T04:13:29.823Z,98519.88
2023-05-05T04:14:32.896Z,98514.03
2023-05-05T04:15:35.937Z,98501.31
2023-05-05T04:16:39.041Z,98513.16
2023-05-05T04:17:43.097Z,98514.84
2023-05-05T04:18:46.396Z,98515.56
2023-05-05T04:19:49.490Z,98509.38
2023-05-05T04:20:52.546Z,98512.28
2023-05-05T04:21:55.550Z,98510.75
2023-05-05T04:22:58.537Z,98517.84
2023-05-05T04:24:01.515Z,98515.66
2023-05-05T04:25:04.857Z,98520.34
2023-05-05T04:26:07.782Z,98520.03
2023-05-05T04:27:10.607Z,98517.31
2023-05-05T04:28:13.662Z,98523.31
2023-05-05T04:29:17.354Z,98519.28
2023-05-05T04:30:20.562Z,98527.47
2023-05-05T04:31:23.865Z,98526.00
2023-05-05T04:32:27.492Z,98527.47
2023-05-05T04:33:31.003Z,98526.88
2023-05-05T04:34:33.970Z,98525.94
2023-05-05T04:35:36.795Z,98521.50
2023-05-05T04:36:39.760Z,98528.81
2023-05-05T04:37:42.903Z,98525.38
2023-05-05T04:38:46.133Z,98532.63
2023-05-05T04:39:49.455Z,98528.59
2023-05-05T04:40:52.659Z,98528.03
2023-05-05T04:41:55.740Z,98529.97
2023-05-05T04:42:58.728Z,98533.44
2023-05-05T04:44:01.760Z,98527.22
2023-05-05T04:45:05.286Z,98532.88
2023-05-05T04:46:08.207Z,98530.31
2023-05-05T04:47:12.610Z,98523.53
2023-05-05T04:48:17.838Z,98534.66
2023-05-05T04:49:20.805Z,98537.72
2023-05-05T04:50:23.880Z,98538.59
2023-05-05T04:51:27.929Z,98538.78
2023-05-05T04:52:30.962Z,98548.19
2023-05-05T04:53:34.130Z,98546.09
2023-05-05T04:54:37.914Z,98545.94
2023-05-05T04:55:40.856Z,98543.78
2023-05-05T04:56:44.722Z,98539.88
2023-05-05T04:57:47.751Z,98543.91
2023-05-05T04:58:50.944Z,98547.56
2023-05-05T04:59:53.908Z,98547.72
2023-05-05T05:00:56.904Z,98546.28
2023-05-05T05:02:00.015Z,98545.13
2023-05-05T05:03:03.376Z,98552.09
2023-05-05T05:04:06.492Z,98549.62
2023-05-05T05:05:10.035Z,98553.56
2023-05-05T05:06:12.980Z,98550.63
2023-05-05T05:07:15.963Z,98551.88
2023-05-05T05:08:19.119Z,98554.81
2023-05-05T05:09:22.158Z,98552.78
2023-05-05T05:10:25.066Z,98559.16
2023-05-05T05:11:28.275Z,98547.03
2023-05-05T05:12:31.408Z,98548.62
2023-05-05T05:13:34.376Z,98552.28
2023-05-05T05:14:38.417Z,98560.97
2023-05-05T05:15:42.288Z,98558.72
2023-05-05T05:16:45.709Z,98553.37
2023-05-05T05:17:48.786Z,98554.75
2023-05-05T05:18:51.770Z,98561.28
2023-05-05T05:19:55.633Z,98557.97
2023-05-05T05:20:58.806Z,98562.16
2023-05-05T05:22:01.791Z,98557.56
2023-05-05T05:23:04.813Z,98558.44
2023-05-05T05:24:07.885Z,98564.25
2023-05-05T05:25:11.212Z,98554.28
2023-05-05T05:26:14.234Z,98567.19
2023-05-05T05:27:17.188Z,98560.13
2023-05-05T05:28:20.404Z,98561.88
2023-05-05T05:29:23.329Z,98564.34
2023-05-05T05:30:26.288Z,98566.13
2023-05-05T05:31:29.173Z,98570.75
2023-05-05T05:32:32.809Z,98571.38
2023-05-05T05:33:35.714Z,98560.69
2023-05-05T05:34:38.735Z,98569.53
2023-05-05T05:35:41.782Z,98571.16
2023-05-05T05:36:44.945Z,98570.13
2023-05-05T05:37:47.978Z,98572.31
2023-05-05T05:38:51.090Z,98572.03
2023-05-05T05:39:53.954Z,98580.75
2023-05-05T05:40:56.966Z,98575.13
2023-05-05T05:42:01.061Z,98575.69
2023-05-05T05:43:04.419Z,98576.16
2023-05-05T05:44:07.290Z,98574.25
2023-05-05T05:45:10.666Z,98581.38
2023-05-05T05:46:13.811Z,98581.81
2023-05-05T05:47:16.726Z,98576.16
2023-05-05T05:48:19.648Z,98577.88
2023-05-05T05:49:22.544Z,98573.97
2023-05-05T05:50:28.786Z,98577.59
2023-05-05T05:51:31.926Z,98582.25
2023-05-05T05:52:36.442Z,98577.00
2023-05-05T05:53:39.334Z,98575.78
2023-05-05T05:54:42.333Z,98571.59
2023-05-05T05:55:46.836Z,98574.75
2023-05-05T05:56:49.815Z,98573.91
2023-05-05T05:57:52.723Z,98577.38
2023-05-05T05:58:55.707Z,98572.28
2023-05-05T06:00:00.494Z,98568.81
2023-05-05T06:01:05.441Z,98571.69
2023-05-05T06:02:08.421Z,98581.56
2023-05-05T06:03:12.449Z,98573.56
2023-05-05T06:04:15.936Z,98574.59
2023-05-05T06:05:18.871Z,98577.59
2023-05-05T06:06:22.212Z,98577.69
2023-05-05T06:07:25.505Z,98578.63
2023-05-05T06:08:28.515Z,98578.28
2023-05-05T06:09:31.755Z,98578.09
2023-05-05T06:10:35.125Z,98578.25
2023-05-05T06:11:38.618Z,98576.06
2023-05-05T06:12:41.736Z,98586.69
2023-05-05T06:13:47.818Z,98573.28
2023-05-05T06:14:50.894Z,98585.16
2023-05-05T06:15:53.940Z,98582.41
2023-05-05T06:16:57.008Z,98582.69
2023-05-05T06:18:00.109Z,98584.25
2023-05-05T06:19:03.265Z,98585.09
2023-05-05T06:20:07.521Z,98578.28
2023-05-05T06:21:10.684Z,98578.66
2023-05-05T06:22:13.735Z,98578.00
2023-05-05T06:23:16.751Z,98580.56
2023-05-05T06:24:19.737Z,98583.34
2023-05-05T06:25:22.716Z,98578.53
2023-05-05T06:26:26.322Z,98574.56
2023-05-05T06:27:29.341Z,98574.72
2023-05-05T06:28:32.507Z,98569.47
2023-05-05T06:29:35.311Z,98573.31
2023-05-05T06:30:38.316Z,98569.50
2023-05-05T06:31:41.260Z,98573.03
2023-05-05T06:32:44.319Z,98570.75
2023-05-05T06:33:47.211Z,98566.56
2023-05-05T06:34:50.206Z,98570.75
2023-05-05T06:35:53.599Z,98571.88
2023-05-05T06:36:56.619Z,98567.91
2023-05-05T06:37:59.719Z,98568.16
2023-05-05T06:39:02.711Z,98564.19
2023-05-05T06:40:07.192Z,98566.63
2023-05-05T06:41:10.284Z,98572.50
2023-05-05T06:42:13.857Z,98569.16
2023-05-05T06:43:18.829Z,98568.59
2023-05-05T06:44:21.854Z,98573.56
2023-05-05T06:45:24.857Z,98562.25
2023-05-05T06:46:28.338Z,98570.31
2023-05-05T06:47:31.916Z,98573.44
2023-05-05T06:48:34.944Z,98573.56
2023-05-05T06:49:37.858Z,98570.81
2023-05-05T06:50:41.121Z,98573.56
2023-05-05T06:51:44.648Z,98573.81
2023-05-05T06:52:47.934Z,98570.44
2023-05-05T06:53:51.394Z,98570.91
2023-05-05T06:54:54.273Z,98567.66
2023-05-05T06:55:57.199Z,98566.47
2023-05-05T06:57:00.268Z,98568.63
2023-05-05T06:58:06.028Z,98566.81
2023-05-05T06:59:08.896Z,98572.31
2023-05-05T07:00:14.118Z,98567.47
2023-05-05T07:01:17.352Z,98565.41
2023-05-05T07:02:20.403Z,98572.91
2023-05-05T07:03:24.237Z,98567.13
2023-05-05T07:04:27.134Z,98573.28
2023-05-05T07:05:30.205Z,98566.63
2023-05-05T07:06:33.346Z,98563.84
2023-05-05T07:07:36.726Z,98573.63
2023-05-05T07:08:39.550Z,98578.53
2023-05-05T07:09:43.073Z,98572.47
2023-05-05T07:10:46.099Z,98575.50
2023-05-05T07:11:49.177Z,98580.81
2023-05-05T07:12:52.752Z,98579.81
2023-05-05T07:13:56.027Z,98580.31
2023-05-05T07:14:59.020Z,98583.22
2023-05-05T07:16:02.307Z,98574.28
2023-05-05T07:17:05.707Z,98578.72
2023-05-05T07:18:08.688Z,98577.66
2023-05-05T07:19:11.787Z,98576.63
2023-05-05T07:20:14.751Z,98578.53
2023-05-05T07:21:17.781Z,98575.03
2023-05-05T07:22:20.884Z,98581.41
2023-05-05T07:23:23.973Z,98583.69
2023-05-05T07:24:26.959Z,98585.72
2023-05-05T07:25:29.970Z,98588.81
2023-05-05T07:26:33.228Z,98586.75
2023-05-05T07:27:37.487Z,98587.59
2023-05-05T07:28:40.412Z,98583.59
2023-05-05T07:29:43.789Z,98578.13
2023-05-05T07:30:46.697Z,98583.37
2023-05-05T07:31:49.705Z,98581.81
2023-05-05T07:32:52.990Z,98577.94
2023-05-05T07:33:55.791Z,98580.72
2023-05-05T07:34:59.099Z,98576.91
2023-05-05T07:36:02.351Z,98580.09
2023-05-05T07:37:05.434Z,98576.00
2023-05-05T07:38:10.768Z,98571.91
2023-05-05T07:39:15.491Z,98575.37
2023-05-05T07:40:18.901Z,98577.16
2023-05-05T07:41:22.131Z,98577.78
2023-05-05T07:42:25.085Z,98575.16
2023-05-05T07:43:27.910Z,98576.81
2023-05-05T07:44:31.003Z,98583.28
2023-05-05T07:45:34.084Z,98584.13
2023-05-05T07:46:37.441Z,98578.16
2023-05-05T07:47:41.030Z,98574.84
2023-05-05T07:48:44.106Z,98572.50
2023-05-05T07:49:47.065Z,98573.84
2023-05-05T07:50:50.127Z,98572.00
2023-05-05T07:51:53.674Z,98582.87
2023-05-05T07:53:06.126Z,98580.59
2023-05-05T07:54:17.731Z,98576.97
2023-05-05T07:55:21.126Z,98581.31
2023-05-05T07:56:24.213Z,98584.97
2023-05-05T07:57:27.143Z,98576.63
2023-05-05T07:58:29.974Z,98572.56
2023-05-05T07:59:32.900Z,98579.69
2023-05-05T08:00:35.938Z,98583.59
2023-05-05T08:01:39.642Z,98582.34
2023-05-05T08:02:42.727Z,98574.41
2023-05-05T08:03:45.967Z,98584.47
2023-05-05T08:04:48.932Z,98568.75
2023-05-05T08:05:54.524Z,98574.59
2023-05-05T08:06:57.965Z,98584.50
2023-05-05T08:08:00.930Z,98578.09
2023-05-05T08:09:03.998Z,98582.44
2023-05-05T08:10:11.672Z,98583.16
2023-05-05T08:11:15.272Z,98579.41
2023-05-05T08:12:19.433Z,98581.91
2023-05-05T08:13:22.507Z,98579.94
2023-05-05T08:14:25.630Z,98574.28
2023-05-05T08:15:28.678Z,98572.84
2023-05-05T08:16:32.492Z,98578.84
2023-05-05T08:17:49.372Z,98581.47
2023-05-05T08:18:52.655Z,98576.50
2023-05-05T08:19:55.788Z,98583.69
2023-05-05T08:20:58.936Z,98576.97
2023-05-05T08:22:02.078Z,98580.56
2023-05-05T08:23:05.825Z,98574.66
2023-05-05T08:24:09.499Z,98575.00
2023-05-05T08:25:13.546Z,98566.56
2023-05-05T08:26:16.823Z,98582.63
2023-05-05T08:27:19.898Z,98572.69
2023-05-05T08:28:23.410Z,98579.53
2023-05-05T08:29:26.522Z,98575.28
2023-05-05T08:30:30.382Z,98579.94
2023-05-05T08:31:34.763Z,98577.31
2023-05-05T08:32:38.772Z,98578.28
2023-05-05T08:33:41.841Z,98574.81
2023-05-05T08:34:44.809Z,98576.66
2023-05-05T08:35:49.287Z,98577.28
2023-05-05T08:36:52.908Z,98573.88
2023-05-05T08:37:58.121Z,98568.28
2023-05-05T08:39:02.264Z,98574.13
2023-05-05T08:40:06.066Z,98579.44
2023-05-05T08:41:13.283Z,98583.56
2023-05-05T08:42:25.762Z,98578.34
2023-05-05T08:43:36.761Z,98580.75
2023-05-05T08:44:40.009Z,98579.12
2023-05-05T08:45:43.608Z,98581.00
2023-05-05T08:46:47.113Z,98582.66
2023-05-05T08:47:50.227Z,98581.22
2023-05-05T08:48:55.598Z,98579.06
2023-05-05T08:49:59.746Z,98578.09
2023-05-05T08:51:06.980Z,98577.00
2023-05-05T08:52:14.123Z,98582.44
2023-05-05T08:53:22.330Z,98581.84
2023-05-05T08:54:27.718Z,98576.03
2023-05-05T08:55:35.089Z,98573.66
2023-05-05T08:56:43.871Z,98575.56
2023-05-05T08:57:56.740Z,98577.53
2023-05-05T08:59:04.011Z,98574.53
2023-05-05T09:00:10.093Z,98571.41
2023-05-05T09:01:15.037Z,98568.22
2023-05-05T09:02:18.991Z,98563.91
2023-05-05T09:03:22.476Z,98574.34
2023-05-05T09:04:25.504Z,98570.09
2023-05-05T09:05:28.554Z,98574.81
2023-05-05T09:06:34.276Z,98569.81
2023-05-05T09:07:38.677Z,98571.88
2023-05-05T09:08:41.745Z,98567.91
2023-05-05T09:09:45.005Z,98565.91
2023-05-05T09:10:49.373Z,98567.25
2023-05-05T09:11:54.211Z,98570.59
2023-05-05T09:12:57.950Z,98569.16
2023-05-05T09:15:22.875Z,98566.69
2023-05-05T09:16:26.012Z,98566.47
2023-05-05T09:17:29.715Z,98563.94
2023-05-05T09:18:32.898Z,98562.72
2023-05-05T09:20:08.572Z,98563.28
2023-05-05T09:21:26.260Z,98559.97
2023-05-05T09:22:34.372Z,98556.56
2023-05-05T09:23:38.368Z,98565.47
2023-05-05T09:24:55.373Z,98565.22
2023-05-05T09:26:11.298Z,98562.53
2023-05-05T09:27:25.851Z,98562.22
2023-05-05T09:28:29.436Z,98557.62
2023-05-05T09:29:32.489Z,98551.78
2023-05-05T09:30:36.313Z,98558.91
2023-05-05T09:31:39.436Z,98552.97
2023-05-05T09:32:52.968Z,98551.75
2023-05-05T09:33:57.360Z,98552.19
2023-05-05T09:35:01.546Z,98550.81
2023-05-05T09:36:04.693Z,98546.75
2023-05-05T09:37:07.629Z,98552.44
2023-05-05T09:38:13.464Z,98553.44
2023-05-05T09:39:20.364Z,98539.91
2023-05-05T09:40:23.609Z,98539.88
2023-05-05T09:41:41.274Z,98539.78
2023-05-05T09:42:45.056Z,98539.06
2023-05-05T09:43:52.757Z,98548.47
2023-05-05T09:44:59.685Z,98543.28
2023-05-05T09:46:07.876Z,98548.94
2023-05-05T09:47:26.064Z,98541.53
2023-05-05T09:48:32.927Z,98545.50
2023-05-05T09:49:37.645Z,98544.81
2023-05-05T09:50:44.964Z,98543.28
2023-05-05T09:51:49.363Z,98548.88
2023-05-05T09:53:03.149Z,98539.13
2023-05-05T09:54:06.428Z,98540.03
2023-05-05T09:55:18.572Z,98539.03
2023-05-05T09:56:21.481Z,98539.28
2023-05-05T09:57:29.422Z,98537.91
2023-05-05T09:58:32.576Z,98532.69
2023-05-05T09:59:35.858Z,98539.84
2023-05-05T10:00:39.866Z,98538.66
2023-05-05T10:01:44.054Z,98537.59
2023-05-05T10:02:47.103Z,98537.37
2023-05-05T10:03:53.272Z,98537.19
2023-05-05T10:05:08.321Z,98536.59
2023-05-05T10:06:11.720Z,98535.16
2023-05-05T10:07:24.749Z,98536.22
2023-05-05T10:08:34.536Z,98541.03
2023-05-05T10:09:37.640Z,98538.09
2023-05-05T10:10:51.797Z,98539.81
2023-05-05T10:11:58.183Z,98539.00
2023-05-05T10:13:02.060Z,98534.50
2023-05-05T10:14:08.007Z,98542.44
2023-05-05T10:15:12.460Z,98534.78
2023-05-05T10:16:18.658Z,98532.88
2023-05-05T10:17:24.000Z,98530.53
2023-05-05T10:18:28.877Z,98530.78
2023-05-05T10:19:35.384Z,98524.94
2023-05-05T10:20:39.116Z,98527.81
2023-05-05T10:21:46.963Z,98527.06
2023-05-05T10:22:53.669Z,98539.31
2023-05-05T10:24:09.801Z,98532.75
2023-05-05T10:25:18.521Z,98528.31
2023-05-05T10:26:23.442Z,98525.84
2023-05-05T10:27:28.719Z,98529.37
2023-05-05T10:28:42.332Z,98515.91
2023-05-05T10:29:51.064Z,98520.81
2023-05-05T10:30:58.798Z,98520.75
2023-05-05T10:32:52.018Z,98517.88
2023-05-05T10:34:03.924Z,98506.59
2023-05-05T10:35:11.510Z,98508.81
2023-05-05T10:36:15.355Z,98517.31
2023-05-05T10:37:20.276Z,98504.22
2023-05-05T10:38:26.835Z,98510.09
2023-05-05T10:39:30.365Z,98503.78
2023-05-05T10:40:34.245Z,98504.44
2023-05-05T10:41:38.045Z,98504.69
2023-05-05T10:42:41.236Z,98509.78
2023-05-05T10:43:45.444Z,98507.09
2023-05-05T10:44:49.395Z,98500.56
2023-05-05T10:45:53.607Z,98504.38
2023-05-05T10:46:58.381Z,98501.84
2023-05-05T10:48:07.366Z,98491.34
2023-05-05T10:49:18.196Z,98492.97
2023-05-05T10:50:27.352Z,98489.50
2023-05-05T10:51:57.753Z,98487.09
2023-05-05T10:53:19.006Z,98487.72
2023-05-05T10:55:12.510Z,98493.00
2023-05-05T10:56:26.912Z,98484.44
2023-05-05T10:57:32.765Z,98477.88
2023-05-05T10:58:51.136Z,98486.94
2023-05-05T11:00:01.606Z,98476.97
2023-05-05T11:01:07.152Z,98484.00
2023-05-05T11:02:28.684Z,98482.59
2023-05-05T11:03:32.479Z,98470.34
2023-05-05T11:04:35.382Z,98473.75
2023-05-05T11:06:04.398Z,98469.09
2023-05-05T11:07:13.827Z,98465.16
2023-05-05T11:08:27.383Z,98471.03
2023-05-05T11:09:30.767Z,98472.19
2023-05-05T11:10:45.019Z,98460.63
2023-05-05T11:12:05.712Z,98466.84
2023-05-05T11:13:08.925Z,98473.72
2023-05-05T11:14:22.733Z,98467.59
2023-05-05T11:15:31.486Z,98468.00
2023-05-05T11:16:48.115Z,98473.12
2023-05-05T11:17:51.428Z,98466.59
2023-05-05T11:18:54.491Z,98463.75
2023-05-05T11:19:57.896Z,98463.31
2023-05-05T11:21:00.717Z,98458.69
2023-05-05T11:22:03.608Z,98465.25
2023-05-05T11:23:06.577Z,98466.00
2023-05-05T11:24:31.541Z,98462.78
2023-05-05T11:25:37.857Z,98456.41
2023-05-05T11:26:51.992Z,98454.47
2023-05-05T11:28:09.422Z,98456.81
2023-05-05T11:29:12.302Z,98455.56
2023-05-05T11:30:15.605Z,98453.56
2023-05-05T11:31:19.949Z,98454.34
2023-05-05T11:32:23.318Z,98453.97
2023-05-05T11:33:32.169Z,98448.31
2023-05-05T11:34:35.066Z,98449.69
2023-05-05T11:36:06.153Z,98448.97
2023-05-05T11:37:10.734Z,98455.25
2023-05-05T11:38:15.958Z,98450.41
2023-05-05T11:39:21.571Z,98446.06
2023-05-05T11:40:31.149Z,98453.94
2023-05-05T11:41:52.608Z,98446.50
2023-05-05T11:43:07.723Z,98446.63
2023-05-05T11:44:14.365Z,98446.81
2023-05-05T11:45:22.453Z,98435.44
2023-05-05T11:46:25.500Z,98441.75
2023-05-05T11:47:31.066Z,98439.22
2023-05-05T11:48:48.051Z,98433.81
2023-05-05T11:49:51.176Z,98436.44
2023-05-05T11:50:54.818Z,98438.72
2023-05-05T11:52:02.356Z,98427.12
2023-05-05T11:53:05.575Z,98430.56
2023-05-05T11:54:08.598Z,98426.50
2023-05-05T11:55:11.789Z,98431.66
2023-05-05T11:56:21.055Z,98424.91
2023-05-05T11:57:29.277Z,98426.06
2023-05-05T11:58:32.258Z,98428.28
2023-05-05T11:59:37.699Z,98430.91
2023-05-05T12:00:41.006Z,98429.34
2023-05-05T12:01:44.068Z,98425.84
2023-05-05T12:02:47.505Z,98422.78
2023-05-05T12:03:50.817Z,98421.16
2023-05-05T12:04:54.519Z,98422.44
2023-05-05T12:05:57.572Z,98421.78
2023-05-05T12:07:00.999Z,98414.59
2023-05-05T12:08:06.075Z,98421.69
2023-05-05T12:09:19.739Z,98421.78
2023-05-05T12:10:24.022Z,98415.37
2023-05-05T12:11:27.193Z,98408.84
2023-05-05T12:12:38.912Z,98408.78
2023-05-05T12:13:42.171Z,98418.84
2023-05-05T12:14:47.598Z,98407.72
2023-05-05T12:15:50.726Z,98410.81
2023-05-05T12:16:58.160Z,98415.72
2023-05-05T12:18:03.219Z,98410.28
2023-05-05T12:19:08.580Z,98411.50
2023-05-05T12:20:13.412Z,98413.50
2023-05-05T12:21:21.099Z,98406.78
2023-05-05T12:22:26.006Z,98409.28
2023-05-05T12:23:30.751Z,98408.69
2023-05-05T12:24:33.940Z,98411.59
2023-05-05T12:25:38.492Z,98407.66
2023-05-05T12:26:42.154Z,98408.87
2023-05-05T12:27:53.477Z,98406.19
2023-05-05T12:29:00.696Z,98407.09
2023-05-05T12:30:16.928Z,98408.50
2023-05-05T12:31:20.252Z,98402.91
2023-05-05T12:32:33.079Z,98406.44
2023-05-05T12:33:40.146Z,98408.50
2023-05-05T12:34:43.303Z,98401.37
2023-05-05T12:35:46.236Z,98402.69
2023-05-05T12:36:49.911Z,98400.47
2023-05-05T12:37:53.074Z,98404.50
2023-05-05T12:38:56.279Z,98407.41
2023-05-05T12:39:59.485Z,98402.09
2023-05-05T12:41:03.320Z,98407.09
2023-05-05T12:42:06.824Z,98403.94
2023-05-05T12:43:09.942Z,98400.28
2023-05-05T12:44:13.112Z,98394.63
2023-05-05T12:45:19.414Z,98396.09
2023-05-05T12:46:23.613Z,98392.59
2023-05-05T12:47:33.358Z,98390.44
2023-05-05T12:48:38.654Z,98389.72
2023-05-05T12:49:46.184Z,98391.75
2023-05-05T12:50:49.216Z,98396.78
2023-05-05T12:51:57.323Z,98394.72
2023-05-05T12:53:00.424Z,98389.72
2023-05-05T12:54:09.891Z,98391.56